Time;durP1;ratioP1;P1;durP2;ratioP2;P2;SDS_P1;SDS_P2;PMS_P1;PMS_P2;Temp;Humidity;BMP_temperature;BMP_pressure;BME280_temperature;BME280_humidity;BME280_pressure;Samples;Min_cycle;Max_cycle;Signal;HPM_P1;HPM_P2
2021/07/26 00:02:10;;;;;;;2.30;1.40;;;;;;;;;;5009323;28;20045;-84
2021/07/26 00:04:38;;;;;;;3.35;1.30;;;;;;;;;;5027403;28;20029;-84
2021/07/26 00:07:04;;;;;;;2.60;1.48;;;;;;;;;;5028301;28;20036;-85
2021/07/26 00:09:32;;;;;;;2.33;1.60;;;;;;;;;;4995776;28;20033;-85
2021/07/26 00:11:59;;;;;;;2.40;1.35;;;;;;;;;;4995701;28;20455;-85
2021/07/26 00:14:25;;;;;;;2.47;1.67;;;;;;;;;;4995062;28;20084;-85
2021/07/26 00:16:52;;;;;;;3.60;1.92;;;;;;;;;;5009582;28;20045;-84
2021/07/26 00:19:17;;;;;;;3.13;1.80;;;;;;;;;;5013356;28;20034;-85
2021/07/26 00:21:44;;;;;;;2.95;1.73;;;;;;;;;;5012115;28;20087;-85
2021/07/26 00:24:09;;;;;;;2.80;1.75;;;;;;;;;;5001040;28;20034;-85
2021/07/26 00:26:35;;;;;;;2.55;1.73;;;;;;;;;;4991960;28;20117;-85
2021/07/26 00:29:00;;;;;;;2.17;1.60;;;;;;;;;;5014035;28;20038;-85
2021/07/26 00:31:27;;;;;;;3.47;1.83;;;;;;;;;;4963780;28;20117;-85
2021/07/26 00:34:20;;;;;;;2.88;1.70;;;;;;;;;;5003827;28;20034;-85
2021/07/26 00:36:46;;;;;;;3.85;1.63;;;;;;;;;;5036786;28;20076;-85
2021/07/26 00:39:14;;;;;;;2.78;1.50;;;;;;;;;;5001547;28;20489;-84
2021/07/26 00:41:40;;;;;;;3.20;1.80;;;;;;;;;;4995434;28;20046;-85
2021/07/26 00:44:06;;;;;;;2.67;1.33;;;;;;;;;;5011256;28;20044;-84
2021/07/26 00:46:31;;;;;;;2.88;1.70;;;;;;;;;;5026162;28;20057;-85
2021/07/26 00:48:58;;;;;;;3.38;1.52;;;;;;;;;;5027099;28;20034;-85
2021/07/26 00:51:24;;;;;;;2.38;1.30;;;;;;;;;;5010179;28;20041;-85
2021/07/26 00:53:50;;;;;;;4.00;1.77;;;;;;;;;;5011488;28;20038;-85
2021/07/26 00:56:16;;;;;;;4.13;1.77;;;;;;;;;;5003071;28;20163;-85
2021/07/26 00:58:44;;;;;;;2.55;1.67;;;;;;;;;;4978957;28;20595;-84
2021/07/26 01:01:10;;;;;;;3.40;1.60;;;;;;;;;;4994450;28;20060;-85
2021/07/26 01:03:36;;;;;;;4.05;1.65;;;;;;;;;;5010919;28;20048;-84
2021/07/26 01:06:02;;;;;;;3.38;1.67;;;;;;;;;;5022285;28;20516;-84
2021/07/26 01:08:28;;;;;;;2.20;1.38;;;;;;;;;;5014669;28;20037;-84
2021/07/26 01:10:53;;;;;;;2.88;1.73;;;;;;;;;;5011043;28;20037;-84
2021/07/26 01:13:24;;;;;;;3.35;2.00;;;;;;;;;;4992449;28;20232;-84
2021/07/26 01:15:51;;;;;;;2.42;1.25;;;;;;;;;;5025039;28;20128;-84
2021/07/26 01:18:24;;;;;;;2.33;1.17;;;;;;;;;;5026234;28;20040;-84
2021/07/26 01:20:56;;;;;;;2.13;1.40;;;;;;;;;;5017631;28;20042;-84
2021/07/26 01:23:27;;;;;;;2.40;1.50;;;;;;;;;;4999128;28;20614;-84
2021/07/26 01:25:53;;;;;;;3.05;1.75;;;;;;;;;;4998061;28;20095;-85
2021/07/26 01:28:20;;;;;;;2.20;1.35;;;;;;;;;;4997897;28;20038;-85
2021/07/26 01:30:47;;;;;;;2.50;1.63;;;;;;;;;;4981007;28;20034;-84
2021/07/26 01:33:14;;;;;;;2.28;1.50;;;;;;;;;;5010092;28;20036;-85
2021/07/26 01:35:39;;;;;;;2.97;1.30;;;;;;;;;;5027047;28;20046;-84
2021/07/26 01:38:05;;;;;;;3.38;1.70;;;;;;;;;;5027323;28;20091;-84
2021/07/26 01:40:34;;;;;;;3.17;1.67;;;;;;;;;;5013964;28;20083;-84
2021/07/26 01:43:02;;;;;;;2.92;1.58;;;;;;;;;;4984847;28;20031;-84
2021/07/26 01:45:30;;;;;;;2.80;1.63;;;;;;;;;;4992518;28;20524;-84
2021/07/26 01:48:00;;;;;;;2.95;1.58;;;;;;;;;;4977677;28;20038;-84
2021/07/26 01:50:26;;;;;;;2.90;1.77;;;;;;;;;;5006462;28;20031;-84
2021/07/26 01:52:51;;;;;;;2.70;1.83;;;;;;;;;;5000520;28;20034;-84
2021/07/26 01:55:17;;;;;;;3.05;1.75;;;;;;;;;;4977427;28;20046;-85
2021/07/26 01:57:42;;;;;;;2.30;1.50;;;;;;;;;;4994575;28;20496;-86
2021/07/26 02:00:08;;;;;;;2.58;1.45;;;;;;;;;;4994282;28;20075;-86
2021/07/26 02:02:34;;;;;;;2.40;1.63;;;;;;;;;;4964690;28;20038;-85
2021/07/26 02:04:59;;;;;;;3.25;1.80;;;;;;;;;;5030362;28;20061;-84
2021/07/26 02:07:25;;;;;;;2.78;1.60;;;;;;;;;;5028237;28;20038;-84
2021/07/26 02:09:50;;;;;;;3.65;2.05;;;;;;;;;;4981878;28;20038;-84
2021/07/26 02:12:16;;;;;;;4.15;1.95;;;;;;;;;;5013915;28;20030;-84
2021/07/26 02:14:43;;;;;;;3.05;2.05;;;;;;;;;;4996929;28;20042;-85
2021/07/26 02:17:08;;;;;;;3.13;1.70;;;;;;;;;;4997870;28;20109;-85
2021/07/26 02:19:34;;;;;;;4.63;2.35;;;;;;;;;;5030188;28;20041;-84
2021/07/26 02:22:00;;;;;;;4.05;2.10;;;;;;;;;;5030593;28;20045;-84
2021/07/26 02:24:25;;;;;;;3.15;1.98;;;;;;;;;;5030727;28;20072;-84
2021/07/26 02:26:51;;;;;;;2.10;1.40;;;;;;;;;;5013964;28;20041;-84
2021/07/26 02:29:17;;;;;;;3.25;2.13;;;;;;;;;;5029902;28;20084;-85
2021/07/26 02:31:42;;;;;;;2.92;1.75;;;;;;;;;;5014117;28;20030;-84
2021/07/26 02:34:08;;;;;;;2.90;1.67;;;;;;;;;;5013416;28;20038;-84
2021/07/26 02:36:33;;;;;;;3.30;2.08;;;;;;;;;;5008378;28;20048;-84
2021/07/26 02:38:59;;;;;;;3.47;2.10;;;;;;;;;;4981474;28;20036;-84
2021/07/26 02:41:25;;;;;;;2.17;1.55;;;;;;;;;;4981047;28;20527;-84
2021/07/26 02:43:50;;;;;;;2.65;1.63;;;;;;;;;;4977393;28;20034;-84
2021/07/26 02:46:18;;;;;;;2.60;1.60;;;;;;;;;;4994044;28;20038;-84
2021/07/26 02:48:43;;;;;;;3.15;1.73;;;;;;;;;;4977766;28;20038;-84
2021/07/26 02:51:08;;;;;;;4.47;2.05;;;;;;;;;;4996515;28;20034;-84
2021/07/26 02:53:34;;;;;;;2.70;1.80;;;;;;;;;;5029768;28;20437;-84
2021/07/26 02:56:00;;;;;;;2.70;1.70;;;;;;;;;;5029119;28;20116;-84
2021/07/26 02:58:26;;;;;;;3.97;1.90;;;;;;;;;;5012478;28;20048;-84
2021/07/26 03:00:51;;;;;;;3.03;2.10;;;;;;;;;;5013401;28;20034;-83
2021/07/26 03:03:16;;;;;;;3.28;1.80;;;;;;;;;;5012774;28;20497;-84
2021/07/26 03:05:42;;;;;;;5.47;2.40;;;;;;;;;;5025159;28;20060;-84
2021/07/26 03:08:08;;;;;;;3.63;2.17;;;;;;;;;;5012735;28;20125;-84
2021/07/26 03:10:33;;;;;;;3.30;2.13;;;;;;;;;;5029219;28;20038;-84
2021/07/26 03:13:00;;;;;;;2.67;1.73;;;;;;;;;;4996155;28;20053;-84
2021/07/26 03:15:26;;;;;;;3.28;2.20;;;;;;;;;;4980028;28;20092;-84
2021/07/26 03:17:51;;;;;;;3.60;2.45;;;;;;;;;;5012611;28;20042;-84
2021/07/26 03:20:17;;;;;;;3.55;2.20;;;;;;;;;;5001780;28;20085;-84
2021/07/26 03:23:12;;;;;;;3.00;2.15;;;;;;;;;;4980515;28;20064;-84
2021/07/26 03:25:41;;;;;;;3.35;2.35;;;;;;;;;;4988415;28;20049;-84
2021/07/26 03:28:07;;;;;;;3.40;2.38;;;;;;;;;;4988681;28;20069;-82
2021/07/26 03:30:32;;;;;;;3.83;2.22;;;;;;;;;;5028670;28;20034;-83
2021/07/26 03:32:58;;;;;;;3.78;2.22;;;;;;;;;;4996052;28;20113;-82
2021/07/26 03:35:23;;;;;;;3.95;2.38;;;;;;;;;;4981500;28;20068;-82
2021/07/26 03:37:50;;;;;;;5.97;2.38;;;;;;;;;;5029371;28;20087;-82
2021/07/26 03:40:16;;;;;;;3.28;2.00;;;;;;;;;;5016142;28;20033;-82
2021/07/26 03:42:42;;;;;;;3.45;2.15;;;;;;;;;;5032478;28;20124;-83
2021/07/26 03:45:09;;;;;;;4.60;2.22;;;;;;;;;;5015560;28;20029;-82
2021/07/26 03:47:34;;;;;;;2.83;2.03;;;;;;;;;;5039852;28;20121;-82
2021/07/26 03:50:00;;;;;;;2.95;1.80;;;;;;;;;;5009206;28;20164;-82
2021/07/26 03:52:25;;;;;;;2.70;1.80;;;;;;;;;;5018587;28;20041;-83
2021/07/26 03:54:55;;;;;;;4.07;2.17;;;;;;;;;;5028517;28;20038;-82
2021/07/26 03:57:20;;;;;;;3.10;2.20;;;;;;;;;;4992352;28;20050;-82
2021/07/26 03:59:45;;;;;;;2.90;1.80;;;;;;;;;;4995061;28;20562;-82
2021/07/26 04:02:11;;;;;;;3.08;1.88;;;;;;;;;;4994438;28;20042;-83
2021/07/26 04:04:36;;;;;;;2.92;2.00;;;;;;;;;;4994477;28;20100;-82
2021/07/26 04:07:06;;;;;;;3.38;2.10;;;;;;;;;;5028234;28;20046;-83
2021/07/26 04:09:39;;;;;;;3.08;1.90;;;;;;;;;;5011120;28;20034;-82
2021/07/26 04:12:08;;;;;;;4.13;2.33;;;;;;;;;;5012846;28;20058;-82
2021/07/26 04:14:40;;;;;;;3.00;1.83;;;;;;;;;;5028035;28;20120;-82
2021/07/26 04:17:06;;;;;;;5.35;2.47;;;;;;;;;;5029377;28;20125;-83
2021/07/26 04:19:32;;;;;;;3.05;1.80;;;;;;;;;;4979061;28;20067;-81
2021/07/26 04:21:57;;;;;;;2.35;1.67;;;;;;;;;;4979370;28;20087;-82
2021/07/26 04:24:23;;;;;;;3.08;1.88;;;;;;;;;;4977629;28;20041;-82
2021/07/26 04:26:48;;;;;;;3.28;1.77;;;;;;;;;;5027104;28;20132;-82
2021/07/26 04:29:15;;;;;;;2.78;1.67;;;;;;;;;;4991884;28;20065;-82
2021/07/26 04:31:41;;;;;;;3.35;1.85;;;;;;;;;;4979375;28;20053;-82
2021/07/26 04:34:06;;;;;;;3.45;1.83;;;;;;;;;;4999262;28;20041;-82
2021/07/26 04:36:32;;;;;;;4.22;1.67;;;;;;;;;;5016558;28;20053;-82
2021/07/26 04:38:57;;;;;;;3.08;1.85;;;;;;;;;;5001836;28;20101;-83
2021/07/26 04:41:23;;;;;;;2.28;1.50;;;;;;;;;;5009258;28;20076;-83
2021/07/26 04:43:48;;;;;;;3.47;1.98;;;;;;;;;;5011222;28;20030;-82
2021/07/26 04:46:16;;;;;;;3.08;2.13;;;;;;;;;;5008054;28;20074;-84
2021/07/26 04:48:41;;;;;;;3.35;1.77;;;;;;;;;;5005738;28;20042;-82
2021/07/26 04:51:07;;;;;;;2.97;1.40;;;;;;;;;;5008205;28;20030;-82
2021/07/26 04:53:34;;;;;;;2.78;1.63;;;;;;;;;;5010421;28;20037;-82
2021/07/26 04:55:59;;;;;;;4.65;1.85;;;;;;;;;;4984872;28;20038;-82
2021/07/26 04:58:25;;;;;;;4.43;2.05;;;;;;;;;;4975221;28;20049;-82
2021/07/26 05:00:50;;;;;;;2.60;1.60;;;;;;;;;;4990814;28;20124;-82
2021/07/26 05:03:16;;;;;;;2.42;1.45;;;;;;;;;;4978054;28;20489;-82
2021/07/26 05:05:41;;;;;;;3.75;1.80;;;;;;;;;;4978820;28;20037;-82
2021/07/26 05:08:07;;;;;;;3.28;1.75;;;;;;;;;;4994257;28;20034;-82
2021/07/26 05:10:35;;;;;;;2.75;1.75;;;;;;;;;;4978390;28;20034;-82
2021/07/26 05:13:00;;;;;;;3.45;1.77;;;;;;;;;;4994618;28;20056;-82
2021/07/26 05:15:26;;;;;;;2.85;1.50;;;;;;;;;;4977890;28;20030;-82
2021/07/26 05:17:51;;;;;;;2.88;1.77;;;;;;;;;;4994193;28;20057;-82
2021/07/26 05:20:17;;;;;;;2.35;1.60;;;;;;;;;;4994459;28;20026;-82
2021/07/26 05:22:42;;;;;;;2.70;1.13;;;;;;;;;;4994353;28;20508;-82
2021/07/26 05:25:08;;;;;;;2.53;1.48;;;;;;;;;;4977919;28;20121;-83
2021/07/26 05:27:34;;;;;;;2.92;1.70;;;;;;;;;;5011041;28;20415;-83
2021/07/26 05:30:00;;;;;;;4.15;1.50;;;;;;;;;;5001614;28;20026;-82
2021/07/26 05:32:25;;;;;;;14.60;2.63;;;;;;;;;;4993958;28;20049;-82
2021/07/26 05:34:52;;;;;;;8.52;1.73;;;;;;;;;;5007524;28;20033;-82
2021/07/26 05:37:17;;;;;;;4.85;1.77;;;;;;;;;;5025229;28;20046;-83
2021/07/26 05:39:43;;;;;;;5.28;1.85;;;;;;;;;;5010538;28;20080;-84
2021/07/26 05:42:11;;;;;;;5.85;2.38;;;;;;;;;;5027445;28;20038;-83
2021/07/26 05:44:40;;;;;;;7.05;2.03;;;;;;;;;;5027062;28;20034;-83
2021/07/26 05:47:06;;;;;;;6.35;2.17;;;;;;;;;;5022372;28;20081;-82
2021/07/26 05:49:31;;;;;;;3.60;1.85;;;;;;;;;;4997233;28;20088;-83
2021/07/26 05:51:57;;;;;;;3.65;1.88;;;;;;;;;;4995857;28;20030;-83
2021/07/26 05:54:23;;;;;;;4.38;1.58;;;;;;;;;;4989883;28;20025;-83
2021/07/26 05:56:50;;;;;;;4.18;1.42;;;;;;;;;;4964754;28;20033;-83
2021/07/26 05:59:16;;;;;;;4.88;2.17;;;;;;;;;;5030250;28;20048;-83
2021/07/26 06:01:48;;;;;;;5.38;2.00;;;;;;;;;;5027063;28;20029;-83
2021/07/26 06:04:15;;;;;;;3.38;1.95;;;;;;;;;;4997064;28;20519;-84
2021/07/26 06:06:48;;;;;;;3.20;1.40;;;;;;;;;;4972091;28;20058;-83
2021/07/26 06:09:15;;;;;;;4.25;1.83;;;;;;;;;;5044374;28;20045;-83
2021/07/26 06:11:40;;;;;;;2.90;1.88;;;;;;;;;;5025590;28;20409;-83
2021/07/26 06:14:07;;;;;;;2.83;1.60;;;;;;;;;;5020537;28;20029;-83
2021/07/26 06:16:33;;;;;;;3.20;1.45;;;;;;;;;;4992607;28;20084;-83
2021/07/26 06:19:00;;;;;;;3.05;1.70;;;;;;;;;;4974317;28;20034;-83
2021/07/26 06:21:26;;;;;;;4.72;2.40;;;;;;;;;;4974383;28;20046;-81
2021/07/26 06:23:51;;;;;;;7.57;1.77;;;;;;;;;;5001158;28;20116;-82
2021/07/26 06:26:17;;;;;;;8.98;2.30;;;;;;;;;;4976038;28;20121;-82
2021/07/26 06:28:43;;;;;;;4.43;1.70;;;;;;;;;;4977036;28;20034;-83
2021/07/26 06:31:10;;;;;;;4.90;2.17;;;;;;;;;;5005412;28;20042;-83
2021/07/26 06:33:37;;;;;;;6.78;1.80;;;;;;;;;;5009726;28;20044;-83
2021/07/26 06:36:03;;;;;;;4.63;1.55;;;;;;;;;;5010299;28;20095;-84
2021/07/26 06:38:29;;;;;;;5.82;1.83;;;;;;;;;;4980854;28;20068;-82
2021/07/26 06:40:55;;;;;;;2.97;1.58;;;;;;;;;;5029938;28;20069;-83
2021/07/26 06:43:20;;;;;;;2.75;1.85;;;;;;;;;;5010798;28;20030;-79
2021/07/26 06:45:46;;;;;;;4.15;1.70;;;;;;;;;;4998732;28;20037;-82
2021/07/26 06:48:11;;;;;;;2.88;2.13;;;;;;;;;;5008248;28;20048;-79
2021/07/26 06:50:43;;;;;;;3.42;1.60;;;;;;;;;;5011165;28;20382;-83
2021/07/26 06:53:08;;;;;;;3.00;1.70;;;;;;;;;;5010962;28;20030;-82
2021/07/26 06:55:37;;;;;;;2.17;1.40;;;;;;;;;;5010209;28;20420;-83
2021/07/26 06:58:04;;;;;;;2.80;1.73;;;;;;;;;;5025060;28;20440;-83
2021/07/26 07:00:30;;;;;;;4.13;1.88;;;;;;;;;;5011611;28;20116;-81
2021/07/26 07:02:59;;;;;;;2.97;1.45;;;;;;;;;;5032702;28;20167;-82
2021/07/26 07:05:28;;;;;;;3.88;1.85;;;;;;;;;;5037681;28;20041;-82
2021/07/26 07:07:54;;;;;;;4.45;1.63;;;;;;;;;;4984260;28;20037;-81
2021/07/26 07:10:20;;;;;;;2.35;1.45;;;;;;;;;;4979841;28;20038;-85
2021/07/26 07:12:46;;;;;;;3.60;1.95;;;;;;;;;;4996467;28;20038;-82
2021/07/26 07:15:18;;;;;;;4.88;1.77;;;;;;;;;;4996059;28;20512;-81
2021/07/26 07:17:43;;;;;;;;;;;;;;;;;;5012878;28;20057;-82
2021/07/26 07:20:09;;;;;;;2.47;1.50;;;;;;;;;;4996151;28;19987;-82
2021/07/26 07:22:35;;;;;;;4.65;1.65;;;;;;;;;;4996540;28;20069;-83
2021/07/26 07:25:00;;;;;;;3.22;1.63;;;;;;;;;;4979684;28;20526;-81
2021/07/26 07:27:27;;;;;;;3.67;1.63;;;;;;;;;;4996300;28;20038;-81
2021/07/26 07:29:56;;;;;;;2.95;1.98;;;;;;;;;;4976236;28;20517;-82
2021/07/26 07:32:22;;;;;;;2.67;1.60;;;;;;;;;;4992329;28;20034;-82
2021/07/26 07:34:51;;;;;;;6.15;2.15;;;;;;;;;;5008063;28;20034;-81
2021/07/26 07:37:17;;;;;;;2.50;1.90;;;;;;;;;;5003841;28;20420;-81
2021/07/26 07:39:49;;;;;;;3.13;1.60;;;;;;;;;;5000021;28;20026;-81
2021/07/26 07:42:20;;;;;;;2.20;1.40;;;;;;;;;;4992742;28;20053;-83
2021/07/26 07:44:50;;;;;;;7.40;3.03;;;;;;;;;;4992352;28;20116;-83
2021/07/26 07:47:17;;;;;;;9.75;7.07;;;;;;;;;;4991925;28;20046;-84
2021/07/26 07:49:45;;;;;;;7.28;5.70;;;;;;;;;;4982701;28;20030;-81
2021/07/26 07:52:14;;;;;;;7.75;4.57;;;;;;;;;;4979650;28;20517;-85
2021/07/26 07:54:39;;;;;;;8.55;6.05;;;;;;;;;;4996129;28;20061;-81
2021/07/26 07:57:05;;;;;;;11.05;7.28;;;;;;;;;;4978937;28;20504;-82
2021/07/26 07:59:31;;;;;;;10.27;8.27;;;;;;;;;;4995653;28;20080;-81
2021/07/26 08:02:05;;;;;;;10.13;8.02;;;;;;;;;;5010348;28;20046;-82
2021/07/26 08:04:33;;;;;;;11.00;7.60;;;;;;;;;;5008047;28;20046;-83
2021/07/26 08:07:02;;;;;;;10.73;8.10;;;;;;;;;;4995743;28;20030;-82
2021/07/26 08:09:45;;;;;;;9.70;7.78;;;;;;;;;;5005666;28;20034;-82
2021/07/26 08:12:11;;;;;;;7.97;6.38;;;;;;;;;;5021449;28;20052;-82
2021/07/26 08:14:37;;;;;;;8.88;6.03;;;;;;;;;;5011816;28;20030;-81
2021/07/26 08:17:02;;;;;;;8.98;5.20;;;;;;;;;;5027941;28;20042;-81
2021/07/26 08:19:29;;;;;;;7.72;4.85;;;;;;;;;;5011670;28;20108;-81
2021/07/26 08:21:55;;;;;;;5.60;4.20;;;;;;;;;;5000329;28;20043;-81
2021/07/26 08:24:20;;;;;;;5.63;3.53;;;;;;;;;;5021239;28;20118;-80
2021/07/26 08:26:46;;;;;;;6.38;4.00;;;;;;;;;;5011398;28;20459;-81
2021/07/26 08:29:12;;;;;;;5.28;3.72;;;;;;;;;;5022088;28;20048;-82
2021/07/26 08:31:38;;;;;;;6.07;3.65;;;;;;;;;;4994499;28;20034;-81
2021/07/26 08:34:04;;;;;;;4.45;2.90;;;;;;;;;;5008208;28;20036;-85
2021/07/26 08:36:32;;;;;;;4.55;2.75;;;;;;;;;;5025151;28;20041;-81
2021/07/26 08:38:58;;;;;;;3.92;2.40;;;;;;;;;;5047555;28;20037;-82
2021/07/26 08:41:24;;;;;;;3.97;2.53;;;;;;;;;;5034170;28;20034;-80
2021/07/26 08:43:49;;;;;;;3.35;2.40;;;;;;;;;;5010731;28;20087;-82
2021/07/26 08:46:18;;;;;;;3.28;2.13;;;;;;;;;;5023724;28;20036;-82
2021/07/26 08:48:46;;;;;;;4.38;2.38;;;;;;;;;;5007356;28;20045;-81
2021/07/26 08:51:11;;;;;;;3.83;1.90;;;;;;;;;;4991568;28;20102;-81
2021/07/26 08:53:37;;;;;;;2.97;1.85;;;;;;;;;;5025293;28;20041;-82
2021/07/26 08:56:02;;;;;;;2.70;1.67;;;;;;;;;;5026940;28;20514;-82
2021/07/26 08:58:28;;;;;;;3.05;1.83;;;;;;;;;;5010584;28;20037;-81
2021/07/26 09:00:53;;;;;;;3.28;1.90;;;;;;;;;;4977774;28;20033;-81
2021/07/26 09:03:19;;;;;;;5.22;3.30;;;;;;;;;;5009552;28;20034;-80
2021/07/26 09:05:44;;;;;;;5.55;2.17;;;;;;;;;;5010371;28;20042;-80
2021/07/26 09:08:10;;;;;;;3.63;2.45;;;;;;;;;;4992223;28;20044;-80
2021/07/26 09:10:37;;;;;;;2.63;1.58;;;;;;;;;;5010038;28;20038;-80
2021/07/26 09:13:08;;;;;;;2.85;1.45;;;;;;;;;;5027367;28;20045;-82
2021/07/26 09:15:42;;;;;;;3.28;1.50;;;;;;;;;;5026278;28;20034;-83
2021/07/26 09:18:09;;;;;;;4.40;2.05;;;;;;;;;;5027185;28;20042;-83
2021/07/26 09:20:36;;;;;;;2.20;1.60;;;;;;;;;;4977781;28;20030;-81
2021/07/26 09:23:21;;;;;;;2.90;1.67;;;;;;;;;;4978140;28;20096;-83
2021/07/26 09:25:52;;;;;;;3.30;1.50;;;;;;;;;;5014499;28;20124;-83
2021/07/26 09:28:20;;;;;;;3.22;1.63;;;;;;;;;;5014834;28;20037;-80
2021/07/26 09:30:53;;;;;;;2.38;1.05;;;;;;;;;;4996710;28;20488;-84
2021/07/26 09:33:31;;;;;;;3.47;1.50;;;;;;;;;;5010708;28;20045;-82
2021/07/26 09:36:26;;;;;;;2.40;1.60;;;;;;;;;;5010925;28;20034;-83
2021/07/26 09:38:57;;;;;;;3.08;1.63;;;;;;;;;;5010428;28;20343;-81
2021/07/26 09:41:42;;;;;;;4.53;2.03;;;;;;;;;;4994355;28;20034;-82
2021/07/26 09:44:07;;;;;;;3.63;1.80;;;;;;;;;;5021670;28;20040;-82
2021/07/26 09:46:39;;;;;;;4.85;1.88;;;;;;;;;;5009895;28;20042;-82
2021/07/26 09:49:15;;;;;;;3.58;1.70;;;;;;;;;;5011433;28;20045;-82
2021/07/26 09:51:40;;;;;;;4.25;1.38;;;;;;;;;;5026828;28;20037;-81
2021/07/26 09:54:07;;;;;;;2.50;1.60;;;;;;;;;;4993698;28;20424;-81
2021/07/26 09:56:33;;;;;;;3.55;1.58;;;;;;;;;;4993998;28;20498;-84
2021/07/26 09:58:59;;;;;;;2.13;1.52;;;;;;;;;;4977749;28;20451;-82
2021/07/26 10:01:25;;;;;;;4.10;1.88;;;;;;;;;;4977456;28;20113;-82
2021/07/26 10:03:52;;;;;;;3.58;2.13;;;;;;;;;;4977529;28;20045;-83
2021/07/26 10:06:18;;;;;;;3.35;2.05;;;;;;;;;;4977544;28;20033;-81
2021/07/26 10:08:44;;;;;;;3.72;1.60;;;;;;;;;;4977590;28;20128;-81
2021/07/26 10:11:09;;;;;;;3.58;1.92;;;;;;;;;;5010459;28;20026;-83
2021/07/26 10:13:39;;;;;;;4.35;1.50;;;;;;;;;;5003751;28;20132;-84
2021/07/26 10:16:05;;;;;;;3.20;1.83;;;;;;;;;;4992226;28;20054;-81
2021/07/26 10:18:31;;;;;;;3.10;1.50;;;;;;;;;;5026475;28;20034;-80
2021/07/26 10:21:09;;;;;;;3.08;2.40;;;;;;;;;;5025837;28;20076;-80
2021/07/26 10:23:39;;;;;;;4.13;1.80;;;;;;;;;;5021969;28;20099;-80
2021/07/26 10:26:14;;;;;;;3.25;1.63;;;;;;;;;;5017904;28;20080;-80
2021/07/26 10:28:55;;;;;;;3.80;1.75;;;;;;;;;;5000802;28;20056;-80
2021/07/26 10:31:35;;;;;;;2.65;1.60;;;;;;;;;;5030174;28;20025;-80
2021/07/26 10:34:01;;;;;;;3.45;1.63;;;;;;;;;;5013221;28;20046;-80
2021/07/26 10:36:58;;;;;;;4.30;1.50;;;;;;;;;;5017999;28;20042;-81
2021/07/26 10:39:24;;;;;;;3.50;1.92;;;;;;;;;;4998226;28;20057;-81
2021/07/26 10:41:54;;;;;;;2.70;1.80;;;;;;;;;;5029841;28;20052;-81
2021/07/26 10:44:20;;;;;;;4.72;1.95;;;;;;;;;;5013501;28;20042;-81
2021/07/26 10:47:05;;;;;;;3.08;1.90;;;;;;;;;;5033236;28;20042;-80
2021/07/26 10:49:43;;;;;;;4.40;1.83;;;;;;;;;;5021589;28;20059;-80
2021/07/26 10:52:10;;;;;;;6.78;2.00;;;;;;;;;;5013790;28;20033;-80
2021/07/26 10:54:35;;;;;;;3.05;1.92;;;;;;;;;;4964251;28;20042;-80
2021/07/26 10:57:05;;;;;;;3.13;2.10;;;;;;;;;;5029141;28;20037;-81
2021/07/26 10:59:51;;;;;;;4.35;2.25;;;;;;;;;;5014634;28;20473;-80
2021/07/26 11:02:38;;;;;;;3.38;2.33;;;;;;;;;;4999539;28;20093;-80
2021/07/26 11:05:26;;;;;;;4.88;2.15;;;;;;;;;;5029509;28;20400;-80
2021/07/26 11:08:13;;;;;;;3.22;2.33;;;;;;;;;;5013814;28;20040;-81
2021/07/26 11:10:47;;;;;;;4.65;2.03;;;;;;;;;;4996555;28;20034;-81
2021/07/26 11:13:13;;;;;;;3.78;1.80;;;;;;;;;;4996630;28;20038;-80
2021/07/26 11:15:46;;;;;;;3.85;2.22;;;;;;;;;;5029303;28;20096;-81
2021/07/26 11:18:44;;;;;;;2.95;2.00;;;;;;;;;;5013118;28;20026;-80
2021/07/26 11:21:12;;;;;;;3.42;2.22;;;;;;;;;;5020427;28;20049;-81
2021/07/26 11:23:54;;;;;;;3.42;2.30;;;;;;;;;;5000034;28;20034;-81
2021/07/26 11:26:23;;;;;;;4.50;2.55;;;;;;;;;;5005887;28;20029;-81
2021/07/26 11:28:53;;;;;;;3.17;1.58;;;;;;;;;;5015593;28;20056;-81
2021/07/26 11:31:26;;;;;;;3.92;2.17;;;;;;;;;;5029309;28;20044;-81
2021/07/26 11:33:52;;;;;;;5.10;2.47;;;;;;;;;;5000175;28;20030;-80
2021/07/26 11:36:19;;;;;;;2.88;1.90;;;;;;;;;;4974146;28;20026;-81
2021/07/26 11:38:57;;;;;;;3.95;2.47;;;;;;;;;;5028225;28;20037;-81
2021/07/26 11:41:24;;;;;;;5.35;3.35;;;;;;;;;;5032137;28;20518;-80
2021/07/26 11:43:50;;;;;;;5.63;2.60;;;;;;;;;;5016151;28;20034;-81
2021/07/26 11:46:16;;;;;;;6.20;2.70;;;;;;;;;;5015453;28;20546;-80
2021/07/26 11:48:41;;;;;;;6.60;3.72;;;;;;;;;;5011316;28;20037;-81
2021/07/26 11:51:32;;;;;;;3.83;2.35;;;;;;;;;;5014635;28;20057;-81
2021/07/26 11:54:05;;;;;;;3.38;2.28;;;;;;;;;;4993071;28;20031;-81
2021/07/26 11:56:31;;;;;;;3.95;2.42;;;;;;;;;;4979792;28;20053;-80
2021/07/26 11:59:21;;;;;;;3.83;2.00;;;;;;;;;;5015753;28;20029;-81
2021/07/26 12:02:23;;;;;;;3.47;2.40;;;;;;;;;;5048614;28;20068;-81
2021/07/26 12:04:49;;;;;;;4.20;2.35;;;;;;;;;;5035639;28;20132;-81
2021/07/26 12:07:14;;;;;;;4.53;2.00;;;;;;;;;;5015535;28;20044;-80
2021/07/26 12:09:49;;;;;;;2.85;1.83;;;;;;;;;;5031284;28;20032;-81
2021/07/26 12:12:15;;;;;;;4.80;2.75;;;;;;;;;;5013845;28;20108;-81
2021/07/26 12:14:43;;;;;;;3.53;2.40;;;;;;;;;;5015172;28;20411;-81
2021/07/26 12:17:24;;;;;;;2.90;2.25;;;;;;;;;;4999153;28;20106;-81
2021/07/26 12:20:00;;;;;;;4.18;2.25;;;;;;;;;;5003973;28;20030;-81
2021/07/26 12:22:26;;;;;;;4.25;2.13;;;;;;;;;;4994953;28;20128;-80
2021/07/26 12:24:59;;;;;;;4.32;2.38;;;;;;;;;;5037985;28;20041;-81
2021/07/26 12:27:34;;;;;;;3.17;1.90;;;;;;;;;;5003547;28;20034;-81
2021/07/26 12:30:02;;;;;;;2.63;1.55;;;;;;;;;;4995331;28;20120;-81
2021/07/26 12:32:27;;;;;;;3.38;1.80;;;;;;;;;;5011796;28;20040;-81
2021/07/26 12:35:12;;;;;;;2.67;1.45;;;;;;;;;;5010608;28;20033;-81
2021/07/26 12:37:37;;;;;;;2.33;1.23;;;;;;;;;;5021318;28;20262;-81
2021/07/26 12:40:13;;;;;;;3.78;1.50;;;;;;;;;;5011199;28;20492;-81
2021/07/26 12:42:38;;;;;;;2.10;1.35;;;;;;;;;;5026516;28;20042;-81
2021/07/26 12:45:20;;;;;;;2.30;1.35;;;;;;;;;;5016807;28;20087;-81
2021/07/26 12:47:45;;;;;;;2.58;1.65;;;;;;;;;;5010322;28;20648;-81
2021/07/26 12:50:11;;;;;;;4.15;1.58;;;;;;;;;;5010893;28;20124;-81
2021/07/26 12:52:36;;;;;;;3.50;1.90;;;;;;;;;;4994913;28;20177;-81
2021/07/26 12:55:02;;;;;;;4.18;2.08;;;;;;;;;;5024648;28;20424;-81
2021/07/26 12:57:27;;;;;;;2.83;1.42;;;;;;;;;;4986424;28;20042;-82
2021/07/26 12:59:53;;;;;;;2.22;1.60;;;;;;;;;;5010124;28;20040;-80
2021/07/26 13:02:18;;;;;;;2.83;1.80;;;;;;;;;;5012881;28;20074;-81
2021/07/26 13:04:45;;;;;;;5.00;2.15;;;;;;;;;;4994244;28;20484;-81
2021/07/26 13:07:14;;;;;;;3.60;2.30;;;;;;;;;;5022523;28;20041;-81
2021/07/26 13:09:39;;;;;;;3.53;2.70;;;;;;;;;;5011498;28;20116;-81
2021/07/26 13:12:05;;;;;;;4.60;2.30;;;;;;;;;;5002147;28;20121;-81
2021/07/26 13:14:30;;;;;;;3.55;2.72;;;;;;;;;;5006227;28;20411;-81
2021/07/26 13:16:56;;;;;;;4.20;2.70;;;;;;;;;;4978113;28;20038;-81
2021/07/26 13:19:21;;;;;;;4.93;2.45;;;;;;;;;;4978034;28;20056;-81
2021/07/26 13:21:47;;;;;;;4.82;2.88;;;;;;;;;;4977393;28;20034;-81
2021/07/26 13:24:12;;;;;;;4.53;2.60;;;;;;;;;;4996159;28;20520;-81
2021/07/26 13:26:38;;;;;;;4.00;2.78;;;;;;;;;;5007365;28;20045;-81
2021/07/26 13:29:04;;;;;;;3.13;2.10;;;;;;;;;;5009523;28;20041;-82
2021/07/26 13:31:38;;;;;;;3.08;1.98;;;;;;;;;;5026979;28;20034;-81
2021/07/26 13:34:08;;;;;;;3.92;2.38;;;;;;;;;;4979027;28;20038;-81
2021/07/26 13:36:35;;;;;;;3.25;2.45;;;;;;;;;;4997558;28;20073;-79
2021/07/26 13:39:10;;;;;;;3.00;2.22;;;;;;;;;;5013920;28;20041;-81
2021/07/26 13:41:43;;;;;;;4.47;2.30;;;;;;;;;;5012767;28;20380;-81
2021/07/26 13:44:13;;;;;;;2.97;2.20;;;;;;;;;;4978636;28;20100;-81
2021/07/26 13:46:39;;;;;;;5.22;2.38;;;;;;;;;;4994003;28;20034;-81
2021/07/26 13:49:04;;;;;;;3.88;2.72;;;;;;;;;;4977101;28;20411;-80
2021/07/26 13:51:29;;;;;;;3.60;2.17;;;;;;;;;;4998796;28;19949;-81
2021/07/26 13:53:55;;;;;;;4.75;2.63;;;;;;;;;;5025208;28;20401;-80
2021/07/26 13:56:21;;;;;;;2.95;1.83;;;;;;;;;;5010528;28;20635;-80
2021/07/26 13:58:47;;;;;;;4.03;2.65;;;;;;;;;;4981285;28;20037;-80
2021/07/26 14:01:12;;;;;;;3.80;2.60;;;;;;;;;;5010666;28;20038;-80
2021/07/26 14:03:38;;;;;;;6.40;2.53;;;;;;;;;;5004104;28;20040;-80
2021/07/26 14:06:03;;;;;;;3.53;2.47;;;;;;;;;;4994215;28;20037;-80
2021/07/26 14:08:29;;;;;;;5.60;3.05;;;;;;;;;;5009594;28;20034;-80
2021/07/26 14:10:59;;;;;;;3.60;2.65;;;;;;;;;;5022685;28;20039;-81
2021/07/26 14:13:24;;;;;;;3.58;2.30;;;;;;;;;;4996909;28;20045;-80
2021/07/26 14:15:50;;;;;;;4.47;2.55;;;;;;;;;;4994158;28;20046;-81
2021/07/26 14:18:16;;;;;;;3.83;3.22;;;;;;;;;;5018972;28;20497;-80
2021/07/26 14:20:41;;;;;;;3.92;3.17;;;;;;;;;;4987539;28;20069;-80
2021/07/26 14:23:07;;;;;;;4.75;3.30;;;;;;;;;;4985457;28;20488;-81
2021/07/26 14:25:34;;;;;;;4.80;2.88;;;;;;;;;;5017612;28;20056;-80
2021/07/26 14:28:00;;;;;;;4.45;3.03;;;;;;;;;;5000831;28;20116;-81
2021/07/26 14:30:25;;;;;;;5.15;3.47;;;;;;;;;;5007031;28;20489;-81
2021/07/26 14:32:51;;;;;;;4.68;2.90;;;;;;;;;;5038036;28;20042;-81
2021/07/26 14:35:16;;;;;;;6.30;3.70;;;;;;;;;;4978614;28;20045;-81
2021/07/26 14:37:42;;;;;;;5.47;3.25;;;;;;;;;;4997532;28;20061;-81
2021/07/26 14:40:08;;;;;;;4.93;3.22;;;;;;;;;;5013636;28;20037;-81
2021/07/26 14:42:33;;;;;;;7.38;3.30;;;;;;;;;;4980496;28;20033;-81
2021/07/26 14:44:59;;;;;;;4.32;3.40;;;;;;;;;;5029530;28;20548;-81
2021/07/26 14:47:24;;;;;;;4.47;3.03;;;;;;;;;;4996537;28;20034;-81
2021/07/26 14:49:50;;;;;;;3.88;3.15;;;;;;;;;;5016060;28;20490;-80